sensor_id;sensor_type;location;lat;lon;timestamp;temperature;humidity
11744;DHT22;5929;51.906;7.674;2024-01-25T00:00:24;8.90;99.90
11744;DHT22;5929;51.906;7.674;2024-01-25T00:02:50;8.90;99.90
11744;DHT22;5929;51.906;7.674;2024-01-25T00:05:17;8.90;99.90
11744;DHT22;5929;51.906;7.674;2024-01-25T00:07:47;8.90;99.90
11744;DHT22;5929;51.906;7.674;2024-01-25T00:10:17;8.80;99.90
11744;DHT22;5929;51.906;7.674;2024-01-25T00:12:44;8.80;99.90
11744;DHT22;5929;51.906;7.674;2024-01-25T00:15:11;8.90;99.90
11744;DHT22;5929;51.906;7.674;2024-01-25T00:17:37;8.80;99.90
11744;DHT22;5929;51.906;7.674;2024-01-25T00:20:05;8.80;99.90
11744;DHT22;5929;51.906;7.674;2024-01-25T00:22:31;8.80;99.90
11744;DHT22;5929;51.906;7.674;2024-01-25T00:24:58;8.70;99.90
11744;DHT22;5929;51.906;7.674;2024-01-25T00:27:26;8.70;99.90
11744;DHT22;5929;51.906;7.674;2024-01-25T00:29:53;8.60;99.90
11744;DHT22;5929;51.906;7.674;2024-01-25T00:32:20;8.60;99.90
11744;DHT22;5929;51.906;7.674;2024-01-25T00:34:47;8.60;99.90
11744;DHT22;5929;51.906;7.674;2024-01-25T00:37:14;8.50;99.90
11744;DHT22;5929;51.906;7.674;2024-01-25T00:39:42;8.50;99.90
11744;DHT22;5929;51.906;7.674;2024-01-25T00:42:12;8.50;99.90
11744;DHT22;5929;51.906;7.674;2024-01-25T00:44:41;8.50;99.90
11744;DHT22;5929;51.906;7.674;2024-01-25T00:47:09;8.50;99.90
11744;DHT22;5929;51.906;7.674;2024-01-25T00:49:36;8.40;99.90
11744;DHT22;5929;51.906;7.674;2024-01-25T00:52:07;8.40;99.90
11744;DHT22;5929;51.906;7.674;2024-01-25T00:54:34;8.30;99.90
11744;DHT22;5929;51.906;7.674;2024-01-25T00:57:01;8.30;99.90
11744;DHT22;5929;51.906;7.674;2024-01-25T00:59:29;8.30;99.90
11744;DHT22;5929;51.906;7.674;2024-01-25T01:01:58;8.20;99.90
11744;DHT22;5929;51.906;7.674;2024-01-25T01:04:26;8.30;99.90
11744;DHT22;5929;51.906;7.674;2024-01-25T01:06:53;8.30;99.90
11744;DHT22;5929;51.906;7.674;2024-01-25T01:09:20;8.30;99.90
11744;DHT22;5929;51.906;7.674;2024-01-25T01:11:47;8.30;99.90
11744;DHT22;5929;51.906;7.674;2024-01-25T01:14:15;8.30;99.90
11744;DHT22;5929;51.906;7.674;2024-01-25T01:16:42;8.40;99.90
11744;DHT22;5929;51.906;7.674;2024-01-25T01:19:11;8.40;99.90
11744;DHT22;5929;51.906;7.674;2024-01-25T01:21:37;8.40;99.90
11744;DHT22;5929;51.906;7.674;2024-01-25T01:24:09;8.40;99.90
11744;DHT22;5929;51.906;7.674;2024-01-25T01:26:38;8.30;99.90
11744;DHT22;5929;51.906;7.674;2024-01-25T01:29:07;8.30;99.90
11744;DHT22;5929;51.906;7.674;2024-01-25T01:31:34;8.30;99.90
11744;DHT22;5929;51.906;7.674;2024-01-25T01:34:01;8.30;99.90
11744;DHT22;5929;51.906;7.674;2024-01-25T01:36:29;8.30;99.90
11744;DHT22;5929;51.906;7.674;2024-01-25T01:38:56;8.20;99.90
11744;DHT22;5929;51.906;7.674;2024-01-25T01:41:23;8.20;99.90
11744;DHT22;5929;51.906;7.674;2024-01-25T01:43:52;8.20;99.90
11744;DHT22;5929;51.906;7.674;2024-01-25T01:46:24;8.20;99.90
11744;DHT22;5929;51.906;7.674;2024-01-25T01:48:58;8.20;99.90
11744;DHT22;5929;51.906;7.674;2024-01-25T01:51:25;8.20;99.90
11744;DHT22;5929;51.906;7.674;2024-01-25T01:53:53;8.20;99.90
11744;DHT22;5929;51.906;7.674;2024-01-25T01:56:21;8.20;99.90
11744;DHT22;5929;51.906;7.674;2024-01-25T01:58:48;8.10;99.90
11744;DHT22;5929;51.906;7.674;2024-01-25T02:01:16;8.10;99.90
11744;DHT22;5929;51.906;7.674;2024-01-25T02:03:43;8.10;99.90
11744;DHT22;5929;51.906;7.674;2024-01-25T02:06:10;8.00;99.90
11744;DHT22;5929;51.906;7.674;2024-01-25T02:08:37;7.90;99.90
11744;DHT22;5929;51.906;7.674;2024-01-25T02:11:05;7.90;99.90
11744;DHT22;5929;51.906;7.674;2024-01-25T02:13:33;7.90;99.90
11744;DHT22;5929;51.906;7.674;2024-01-25T02:16:00;7.80;99.90
11744;DHT22;5929;51.906;7.674;2024-01-25T02:18:27;7.80;99.90
11744;DHT22;5929;51.906;7.674;2024-01-25T02:20:54;7.70;99.90
11744;DHT22;5929;51.906;7.674;2024-01-25T02:23:24;7.70;99.90
11744;DHT22;5929;51.906;7.674;2024-01-25T02:25:51;7.70;99.90
11744;DHT22;5929;51.906;7.674;2024-01-25T02:28:18;7.70;99.90
11744;DHT22;5929;51.906;7.674;2024-01-25T02:30:45;7.60;99.90
11744;DHT22;5929;51.906;7.674;2024-01-25T02:33:12;7.60;99.90
11744;DHT22;5929;51.906;7.674;2024-01-25T02:35:39;7.60;99.90
11744;DHT22;5929;51.906;7.674;2024-01-25T02:38:05;7.50;99.90
11744;DHT22;5929;51.906;7.674;2024-01-25T02:40:34;7.50;99.90
11744;DHT22;5929;51.906;7.674;2024-01-25T02:43:00;7.50;99.90
11744;DHT22;5929;51.906;7.674;2024-01-25T02:45:27;7.50;99.90
11744;DHT22;5929;51.906;7.674;2024-01-25T02:47:54;7.40;99.90
11744;DHT22;5929;51.906;7.674;2024-01-25T02:50:21;7.40;99.90
11744;DHT22;5929;51.906;7.674;2024-01-25T02:52:48;7.40;99.90
11744;DHT22;5929;51.906;7.674;2024-01-25T02:55:18;7.40;99.90
11744;DHT22;5929;51.906;7.674;2024-01-25T02:57:46;7.30;99.90
11744;DHT22;5929;51.906;7.674;2024-01-25T03:00:13;7.30;99.90
11744;DHT22;5929;51.906;7.674;2024-01-25T03:02:39;7.30;99.90
11744;DHT22;5929;51.906;7.674;2024-01-25T03:05:06;7.20;99.90
11744;DHT22;5929;51.906;7.674;2024-01-25T03:07:33;7.20;99.90
11744;DHT22;5929;51.906;7.674;2024-01-25T03:10:00;7.20;99.90
11744;DHT22;5929;51.906;7.674;2024-01-25T03:12:27;7.20;99.90
11744;DHT22;5929;51.906;7.674;2024-01-25T03:14:55;7.10;99.90
11744;DHT22;5929;51.906;7.674;2024-01-25T03:17:22;7.10;99.90
11744;DHT22;5929;51.906;7.674;2024-01-25T03:19:49;7.10;99.90
11744;DHT22;5929;51.906;7.674;2024-01-25T03:22:15;7.10;99.90
11744;DHT22;5929;51.906;7.674;2024-01-25T03:24:42;7.00;99.90
11744;DHT22;5929;51.906;7.674;2024-01-25T03:27:09;7.00;99.90
11744;DHT22;5929;51.906;7.674;2024-01-25T03:29:41;7.00;99.90
11744;DHT22;5929;51.906;7.674;2024-01-25T03:32:10;6.90;99.90
11744;DHT22;5929;51.906;7.674;2024-01-25T03:34:36;6.90;99.90
11744;DHT22;5929;51.906;7.674;2024-01-25T03:37:04;6.90;99.90
11744;DHT22;5929;51.906;7.674;2024-01-25T03:39:30;6.90;99.90
11744;DHT22;5929;51.906;7.674;2024-01-25T03:41:57;6.90;99.90
11744;DHT22;5929;51.906;7.674;2024-01-25T03:44:26;6.80;99.90
11744;DHT22;5929;51.906;7.674;2024-01-25T03:46:53;6.80;99.90
11744;DHT22;5929;51.906;7.674;2024-01-25T03:49:23;6.80;99.90
11744;DHT22;5929;51.906;7.674;2024-01-25T03:51:50;6.80;99.90
11744;DHT22;5929;51.906;7.674;2024-01-25T03:54:17;6.70;99.90
11744;DHT22;5929;51.906;7.674;2024-01-25T03:56:44;6.70;99.90
11744;DHT22;5929;51.906;7.674;2024-01-25T03:59:11;6.70;99.90
11744;DHT22;5929;51.906;7.674;2024-01-25T04:01:43;6.70;99.90
11744;DHT22;5929;51.906;7.674;2024-01-25T04:04:10;6.70;99.90
11744;DHT22;5929;51.906;7.674;2024-01-25T04:06:41;6.70;99.90
11744;DHT22;5929;51.906;7.674;2024-01-25T04:09:09;6.60;99.90
11744;DHT22;5929;51.906;7.674;2024-01-25T04:11:36;6.60;99.90
11744;DHT22;5929;51.906;7.674;2024-01-25T04:14:03;6.50;99.90
11744;DHT22;5929;51.906;7.674;2024-01-25T04:16:32;6.50;99.90
11744;DHT22;5929;51.906;7.674;2024-01-25T04:18:59;6.40;99.90
11744;DHT22;5929;51.906;7.674;2024-01-25T04:21:26;6.40;99.90
11744;DHT22;5929;51.906;7.674;2024-01-25T04:23:54;6.40;99.90
11744;DHT22;5929;51.906;7.674;2024-01-25T04:26:22;6.40;99.90
11744;DHT22;5929;51.906;7.674;2024-01-25T04:28:49;6.40;99.90
11744;DHT22;5929;51.906;7.674;2024-01-25T04:31:15;6.30;99.90
11744;DHT22;5929;51.906;7.674;2024-01-25T04:33:42;6.30;99.90
11744;DHT22;5929;51.906;7.674;2024-01-25T04:36:09;6.20;99.90
11744;DHT22;5929;51.906;7.674;2024-01-25T04:38:36;6.20;99.90
11744;DHT22;5929;51.906;7.674;2024-01-25T04:41:04;6.20;99.90
11744;DHT22;5929;51.906;7.674;2024-01-25T04:43:34;6.20;99.90
11744;DHT22;5929;51.906;7.674;2024-01-25T04:46:01;6.20;99.90
11744;DHT22;5929;51.906;7.674;2024-01-25T04:48:28;6.20;99.90
11744;DHT22;5929;51.906;7.674;2024-01-25T04:50:56;6.20;99.90
11744;DHT22;5929;51.906;7.674;2024-01-25T04:53:23;6.20;99.90
11744;DHT22;5929;51.906;7.674;2024-01-25T04:55:50;6.10;99.90
11744;DHT22;5929;51.906;7.674;2024-01-25T04:58:18;6.10;99.90
11744;DHT22;5929;51.906;7.674;2024-01-25T05:00:45;6.00;99.90
11744;DHT22;5929;51.906;7.674;2024-01-25T05:03:12;6.00;99.90
11744;DHT22;5929;51.906;7.674;2024-01-25T05:05:39;5.90;99.90
11744;DHT22;5929;51.906;7.674;2024-01-25T05:08:06;5.90;99.90
11744;DHT22;5929;51.906;7.674;2024-01-25T05:10:33;5.90;99.90
11744;DHT22;5929;51.906;7.674;2024-01-25T05:13:00;5.90;99.90
11744;DHT22;5929;51.906;7.674;2024-01-25T05:15:28;5.80;99.90
11744;DHT22;5929;51.906;7.674;2024-01-25T05:17:55;5.80;99.90
11744;DHT22;5929;51.906;7.674;2024-01-25T05:20:22;5.80;99.90
11744;DHT22;5929;51.906;7.674;2024-01-25T05:22:48;5.70;99.90
11744;DHT22;5929;51.906;7.674;2024-01-25T05:25:15;5.70;99.90
11744;DHT22;5929;51.906;7.674;2024-01-25T05:27:42;5.60;99.90
11744;DHT22;5929;51.906;7.674;2024-01-25T05:30:09;5.60;99.90
11744;DHT22;5929;51.906;7.674;2024-01-25T05:32:38;5.50;99.90
11744;DHT22;5929;51.906;7.674;2024-01-25T05:35:05;5.50;99.90
11744;DHT22;5929;51.906;7.674;2024-01-25T05:37:33;5.40;99.90
11744;DHT22;5929;51.906;7.674;2024-01-25T05:39:59;5.30;99.90
11744;DHT22;5929;51.906;7.674;2024-01-25T05:42:26;5.30;99.90
11744;DHT22;5929;51.906;7.674;2024-01-25T05:44:53;5.20;99.90
11744;DHT22;5929;51.906;7.674;2024-01-25T05:47:20;5.20;99.90
11744;DHT22;5929;51.906;7.674;2024-01-25T05:49:48;5.20;99.90
11744;DHT22;5929;51.906;7.674;2024-01-25T05:52:16;5.20;99.90
11744;DHT22;5929;51.906;7.674;2024-01-25T05:54:43;5.20;99.90
11744;DHT22;5929;51.906;7.674;2024-01-25T05:57:10;5.20;99.90
11744;DHT22;5929;51.906;7.674;2024-01-25T05:59:36;5.10;99.90
11744;DHT22;5929;51.906;7.674;2024-01-25T06:02:05;5.20;99.90
11744;DHT22;5929;51.906;7.674;2024-01-25T06:04:33;5.20;99.90
11744;DHT22;5929;51.906;7.674;2024-01-25T06:07:01;5.10;99.90
11744;DHT22;5929;51.906;7.674;2024-01-25T06:09:28;5.10;99.90
11744;DHT22;5929;51.906;7.674;2024-01-25T06:11:55;5.10;99.90
11744;DHT22;5929;51.906;7.674;2024-01-25T06:14:24;5.00;99.90
11744;DHT22;5929;51.906;7.674;2024-01-25T06:16:51;5.10;99.90
11744;DHT22;5929;51.906;7.674;2024-01-25T06:19:20;5.10;99.90
11744;DHT22;5929;51.906;7.674;2024-01-25T06:21:47;5.10;99.90
11744;DHT22;5929;51.906;7.674;2024-01-25T06:24:15;5.10;99.90
11744;DHT22;5929;51.906;7.674;2024-01-25T06:26:42;5.10;99.90
11744;DHT22;5929;51.906;7.674;2024-01-25T06:29:07;5.10;99.90
11744;DHT22;5929;51.906;7.674;2024-01-25T06:31:41;5.10;99.90
11744;DHT22;5929;51.906;7.674;2024-01-25T06:34:08;5.10;99.90
11744;DHT22;5929;51.906;7.674;2024-01-25T06:36:35;5.10;99.90
11744;DHT22;5929;51.906;7.674;2024-01-25T06:39:02;5.10;99.90
11744;DHT22;5929;51.906;7.674;2024-01-25T06:41:31;5.10;99.90
11744;DHT22;5929;51.906;7.674;2024-01-25T06:43:58;5.10;99.90
11744;DHT22;5929;51.906;7.674;2024-01-25T06:46:25;5.10;99.90
11744;DHT22;5929;51.906;7.674;2024-01-25T06:48:52;5.10;99.90
11744;DHT22;5929;51.906;7.674;2024-01-25T06:51:19;5.10;99.90
11744;DHT22;5929;51.906;7.674;2024-01-25T06:53:46;5.10;99.90
11744;DHT22;5929;51.906;7.674;2024-01-25T06:56:13;5.10;99.90
11744;DHT22;5929;51.906;7.674;2024-01-25T06:58:41;5.10;99.90
11744;DHT22;5929;51.906;7.674;2024-01-25T07:01:08;5.10;99.90
11744;DHT22;5929;51.906;7.674;2024-01-25T07:03:35;5.10;99.90
11744;DHT22;5929;51.906;7.674;2024-01-25T07:06:03;5.00;99.90
11744;DHT22;5929;51.906;7.674;2024-01-25T07:08:30;5.00;99.90
11744;DHT22;5929;51.906;7.674;2024-01-25T07:10:56;5.00;99.90
11744;DHT22;5929;51.906;7.674;2024-01-25T07:13:25;4.90;99.90
11744;DHT22;5929;51.906;7.674;2024-01-25T07:15:53;4.90;99.90
11744;DHT22;5929;51.906;7.674;2024-01-25T07:18:20;4.80;99.90
11744;DHT22;5929;51.906;7.674;2024-01-25T07:20:48;4.80;99.90
11744;DHT22;5929;51.906;7.674;2024-01-25T07:23:15;4.70;99.90
11744;DHT22;5929;51.906;7.674;2024-01-25T07:25:42;4.70;99.90
11744;DHT22;5929;51.906;7.674;2024-01-25T07:28:08;4.70;99.90
11744;DHT22;5929;51.906;7.674;2024-01-25T07:30:35;4.70;99.90
11744;DHT22;5929;51.906;7.674;2024-01-25T07:33:04;4.70;99.90
11744;DHT22;5929;51.906;7.674;2024-01-25T07:35:33;4.70;99.90
11744;DHT22;5929;51.906;7.674;2024-01-25T07:38:01;4.70;99.90
11744;DHT22;5929;51.906;7.674;2024-01-25T07:40:27;4.70;99.90
11744;DHT22;5929;51.906;7.674;2024-01-25T07:42:54;4.80;99.90
11744;DHT22;5929;51.906;7.674;2024-01-25T07:45:21;4.80;99.90
11744;DHT22;5929;51.906;7.674;2024-01-25T07:47:48;4.80;99.90
11744;DHT22;5929;51.906;7.674;2024-01-25T07:50:16;4.70;99.90
11744;DHT22;5929;51.906;7.674;2024-01-25T07:52:43;4.70;99.90
11744;DHT22;5929;51.906;7.674;2024-01-25T07:55:10;4.70;99.90
11744;DHT22;5929;51.906;7.674;2024-01-25T07:57:36;4.70;99.90
11744;DHT22;5929;51.906;7.674;2024-01-25T08:00:04;4.70;99.90
11744;DHT22;5929;51.906;7.674;2024-01-25T08:02:32;4.80;99.90
11744;DHT22;5929;51.906;7.674;2024-01-25T08:04:59;4.70;99.90
11744;DHT22;5929;51.906;7.674;2024-01-25T08:07:28;4.70;99.90
11744;DHT22;5929;51.906;7.674;2024-01-25T08:09:55;4.80;99.90
11744;DHT22;5929;51.906;7.674;2024-01-25T08:12:24;4.80;99.90
11744;DHT22;5929;51.906;7.674;2024-01-25T08:14:51;4.90;99.90
11744;DHT22;5929;51.906;7.674;2024-01-25T08:17:18;4.90;99.90
11744;DHT22;5929;51.906;7.674;2024-01-25T08:19:45;5.00;99.90
11744;DHT22;5929;51.906;7.674;2024-01-25T08:22:12;5.10;99.90
11744;DHT22;5929;51.906;7.674;2024-01-25T08:24:41;5.10;99.90
11744;DHT22;5929;51.906;7.674;2024-01-25T08:27:09;5.20;99.90
11744;DHT22;5929;51.906;7.674;2024-01-25T08:29:35;5.20;99.90
11744;DHT22;5929;51.906;7.674;2024-01-25T08:32:03;5.30;99.90
11744;DHT22;5929;51.906;7.674;2024-01-25T08:34:30;5.30;99.90
11744;DHT22;5929;51.906;7.674;2024-01-25T08:36:57;5.30;99.90
11744;DHT22;5929;51.906;7.674;2024-01-25T08:39:24;5.40;99.90
11744;DHT22;5929;51.906;7.674;2024-01-25T08:41:52;5.40;99.90
11744;DHT22;5929;51.906;7.674;2024-01-25T08:44:19;5.40;99.90
11744;DHT22;5929;51.906;7.674;2024-01-25T08:46:46;5.50;99.90
11744;DHT22;5929;51.906;7.674;2024-01-25T08:49:15;5.50;99.90
11744;DHT22;5929;51.906;7.674;2024-01-25T08:51:42;5.60;99.90
11744;DHT22;5929;51.906;7.674;2024-01-25T08:54:09;5.60;99.90
11744;DHT22;5929;51.906;7.674;2024-01-25T08:56:35;5.70;99.90
11744;DHT22;5929;51.906;7.674;2024-01-25T08:59:04;5.70;99.90
11744;DHT22;5929;51.906;7.674;2024-01-25T09:01:30;5.80;99.90
11744;DHT22;5929;51.906;7.674;2024-01-25T09:03:57;5.80;99.90
11744;DHT22;5929;51.906;7.674;2024-01-25T09:06:28;5.80;99.90
11744;DHT22;5929;51.906;7.674;2024-01-25T09:08:55;5.80;99.90
11744;DHT22;5929;51.906;7.674;2024-01-25T09:11:22;5.90;99.90
11744;DHT22;5929;51.906;7.674;2024-01-25T09:13:48;5.90;99.90
11744;DHT22;5929;51.906;7.674;2024-01-25T09:16:17;5.90;99.90
11744;DHT22;5929;51.906;7.674;2024-01-25T09:18:44;5.90;99.90
11744;DHT22;5929;51.906;7.674;2024-01-25T09:21:10;6.00;99.90
11744;DHT22;5929;51.906;7.674;2024-01-25T09:23:37;5.90;99.90
11744;DHT22;5929;51.906;7.674;2024-01-25T09:26:04;6.00;99.90
11744;DHT22;5929;51.906;7.674;2024-01-25T09:28:31;6.00;99.90
11744;DHT22;5929;51.906;7.674;2024-01-25T09:30:58;6.10;99.90
11744;DHT22;5929;51.906;7.674;2024-01-25T09:33:26;6.10;99.90
11744;DHT22;5929;51.906;7.674;2024-01-25T09:35:53;6.20;99.90
11744;DHT22;5929;51.906;7.674;2024-01-25T09:38:19;6.20;99.90
11744;DHT22;5929;51.906;7.674;2024-01-25T09:40:46;6.20;99.90
11744;DHT22;5929;51.906;7.674;2024-01-25T09:43:14;6.20;99.90
11744;DHT22;5929;51.906;7.674;2024-01-25T09:45:41;6.30;99.90
11744;DHT22;5929;51.906;7.674;2024-01-25T09:48:08;6.30;99.90
11744;DHT22;5929;51.906;7.674;2024-01-25T09:50:37;6.30;99.90
11744;DHT22;5929;51.906;7.674;2024-01-25T09:53:05;6.40;99.90
11744;DHT22;5929;51.906;7.674;2024-01-25T09:55:35;6.50;99.90
11744;DHT22;5929;51.906;7.674;2024-01-25T09:58:06;6.50;99.90
11744;DHT22;5929;51.906;7.674;2024-01-25T10:00:33;6.50;99.90
11744;DHT22;5929;51.906;7.674;2024-01-25T10:03:00;6.50;99.90
11744;DHT22;5929;51.906;7.674;2024-01-25T10:05:27;6.50;99.90
11744;DHT22;5929;51.906;7.674;2024-01-25T10:07:57;6.50;99.90
11744;DHT22;5929;51.906;7.674;2024-01-25T10:10:27;6.50;99.90
11744;DHT22;5929;51.906;7.674;2024-01-25T10:12:55;6.60;99.90
11744;DHT22;5929;51.906;7.674;2024-01-25T10:15:23;6.50;99.90
11744;DHT22;5929;51.906;7.674;2024-01-25T10:17:50;6.60;99.90
11744;DHT22;5929;51.906;7.674;2024-01-25T10:20:17;6.60;99.90
11744;DHT22;5929;51.906;7.674;2024-01-25T10:22:46;6.70;99.90
11744;DHT22;5929;51.906;7.674;2024-01-25T10:25:14;6.70;99.90
11744;DHT22;5929;51.906;7.674;2024-01-25T10:27:41;6.80;99.90
11744;DHT22;5929;51.906;7.674;2024-01-25T10:30:10;6.80;99.90
11744;DHT22;5929;51.906;7.674;2024-01-25T10:32:37;6.90;99.90
11744;DHT22;5929;51.906;7.674;2024-01-25T10:35:06;7.00;99.90
11744;DHT22;5929;51.906;7.674;2024-01-25T10:37:34;7.10;99.90
11744;DHT22;5929;51.906;7.674;2024-01-25T10:40:03;7.20;99.90
11744;DHT22;5929;51.906;7.674;2024-01-25T10:42:31;7.30;99.90
11744;DHT22;5929;51.906;7.674;2024-01-25T10:44:58;7.30;99.90
11744;DHT22;5929;51.906;7.674;2024-01-25T10:47:25;7.50;99.90
11744;DHT22;5929;51.906;7.674;2024-01-25T10:49:53;7.50;99.90
11744;DHT22;5929;51.906;7.674;2024-01-25T10:52:20;7.50;99.90
11744;DHT22;5929;51.906;7.674;2024-01-25T10:54:48;7.60;99.90
11744;DHT22;5929;51.906;7.674;2024-01-25T10:57:15;7.60;99.90
11744;DHT22;5929;51.906;7.674;2024-01-25T10:59:44;7.60;99.90
11744;DHT22;5929;51.906;7.674;2024-01-25T11:02:11;7.60;99.90
11744;DHT22;5929;51.906;7.674;2024-01-25T11:04:37;7.80;99.90
11744;DHT22;5929;51.906;7.674;2024-01-25T11:07:06;7.90;99.90
11744;DHT22;5929;51.906;7.674;2024-01-25T11:09:35;8.20;99.90
11744;DHT22;5929;51.906;7.674;2024-01-25T11:12:11;8.30;99.90
11744;DHT22;5929;51.906;7.674;2024-01-25T11:14:38;8.70;99.90
11744;DHT22;5929;51.906;7.674;2024-01-25T11:17:18;9.60;99.90
11744;DHT22;5929;51.906;7.674;2024-01-25T11:19:45;10.30;99.90
11744;DHT22;5929;51.906;7.674;2024-01-25T11:22:12;10.50;99.90
11744;DHT22;5929;51.906;7.674;2024-01-25T11:24:39;10.80;99.90
11744;DHT22;5929;51.906;7.674;2024-01-25T11:27:09;10.80;99.90
11744;DHT22;5929;51.906;7.674;2024-01-25T11:29:36;11.10;99.90
11744;DHT22;5929;51.906;7.674;2024-01-25T11:32:04;10.90;99.90
11744;DHT22;5929;51.906;7.674;2024-01-25T11:34:32;10.70;99.90
11744;DHT22;5929;51.906;7.674;2024-01-25T11:36:59;10.90;99.90
11744;DHT22;5929;51.906;7.674;2024-01-25T11:39:26;10.50;99.90
11744;DHT22;5929;51.906;7.674;2024-01-25T11:41:55;10.30;99.90
11744;DHT22;5929;51.906;7.674;2024-01-25T11:44:22;10.10;99.90
11744;DHT22;5929;51.906;7.674;2024-01-25T11:46:50;9.90;99.90
11744;DHT22;5929;51.906;7.674;2024-01-25T11:49:17;9.80;99.90
11744;DHT22;5929;51.906;7.674;2024-01-25T11:51:45;9.70;99.90
11744;DHT22;5929;51.906;7.674;2024-01-25T11:54:12;9.40;99.90
11744;DHT22;5929;51.906;7.674;2024-01-25T11:56:40;9.10;99.90
11744;DHT22;5929;51.906;7.674;2024-01-25T11:59:08;8.80;99.90
11744;DHT22;5929;51.906;7.674;2024-01-25T12:01:36;8.70;99.90
11744;DHT22;5929;51.906;7.674;2024-01-25T12:04:04;9.00;99.90
11744;DHT22;5929;51.906;7.674;2024-01-25T12:06:32;9.00;99.90
11744;DHT22;5929;51.906;7.674;2024-01-25T12:09:08;9.10;99.90
11744;DHT22;5929;51.906;7.674;2024-01-25T12:11:35;9.10;99.90
11744;DHT22;5929;51.906;7.674;2024-01-25T12:14:01;9.00;99.90
11744;DHT22;5929;51.906;7.674;2024-01-25T12:16:29;9.10;99.90
11744;DHT22;5929;51.906;7.674;2024-01-25T12:18:56;9.20;99.90
11744;DHT22;5929;51.906;7.674;2024-01-25T12:21:23;9.30;99.90
11744;DHT22;5929;51.906;7.674;2024-01-25T12:23:50;9.30;99.90
11744;DHT22;5929;51.906;7.674;2024-01-25T12:26:19;9.60;99.90
11744;DHT22;5929;51.906;7.674;2024-01-25T12:28:48;9.50;99.90
11744;DHT22;5929;51.906;7.674;2024-01-25T12:31:15;9.50;99.90
11744;DHT22;5929;51.906;7.674;2024-01-25T12:33:43;9.30;99.90
11744;DHT22;5929;51.906;7.674;2024-01-25T12:36:10;9.30;99.90
11744;DHT22;5929;51.906;7.674;2024-01-25T12:38:37;9.10;99.90
11744;DHT22;5929;51.906;7.674;2024-01-25T12:41:04;9.00;99.90
11744;DHT22;5929;51.906;7.674;2024-01-25T12:43:32;8.90;99.90
11744;DHT22;5929;51.906;7.674;2024-01-25T12:45:59;8.90;99.90
11744;DHT22;5929;51.906;7.674;2024-01-25T12:48:26;8.90;99.90
11744;DHT22;5929;51.906;7.674;2024-01-25T12:50:53;8.90;99.90
11744;DHT22;5929;51.906;7.674;2024-01-25T12:53:20;8.90;99.90
11744;DHT22;5929;51.906;7.674;2024-01-25T12:55:47;9.00;99.90
11744;DHT22;5929;51.906;7.674;2024-01-25T12:58:16;8.90;99.90
11744;DHT22;5929;51.906;7.674;2024-01-25T13:00:44;9.00;99.90
11744;DHT22;5929;51.906;7.674;2024-01-25T13:03:11;8.90;99.90
11744;DHT22;5929;51.906;7.674;2024-01-25T13:05:38;8.90;99.90
11744;DHT22;5929;51.906;7.674;2024-01-25T13:08:06;9.30;99.90
11744;DHT22;5929;51.906;7.674;2024-01-25T13:10:32;9.70;99.90
11744;DHT22;5929;51.906;7.674;2024-01-25T13:12:59;10.10;99.90
11744;DHT22;5929;51.906;7.674;2024-01-25T13:15:26;10.30;99.90
11744;DHT22;5929;51.906;7.674;2024-01-25T13:17:54;10.40;99.90
11744;DHT22;5929;51.906;7.674;2024-01-25T13:20:21;10.60;99.90
11744;DHT22;5929;51.906;7.674;2024-01-25T13:22:48;10.70;99.90
11744;DHT22;5929;51.906;7.674;2024-01-25T13:25:15;10.40;99.90
11744;DHT22;5929;51.906;7.674;2024-01-25T13:27:42;10.10;99.90
11744;DHT22;5929;51.906;7.674;2024-01-25T13:30:09;9.90;99.90
11744;DHT22;5929;51.906;7.674;2024-01-25T13:32:37;9.90;99.90
11744;DHT22;5929;51.906;7.674;2024-01-25T13:35:06;10.10;99.90
11744;DHT22;5929;51.906;7.674;2024-01-25T13:37:32;10.50;99.90
11744;DHT22;5929;51.906;7.674;2024-01-25T13:39:59;10.70;99.90
11744;DHT22;5929;51.906;7.674;2024-01-25T13:42:26;10.80;99.90
11744;DHT22;5929;51.906;7.674;2024-01-25T13:44:53;11.10;99.90
11744;DHT22;5929;51.906;7.674;2024-01-25T13:47:20;11.10;99.90
11744;DHT22;5929;51.906;7.674;2024-01-25T13:49:48;11.00;99.90
11744;DHT22;5929;51.906;7.674;2024-01-25T13:52:18;10.80;99.90
11744;DHT22;5929;51.906;7.674;2024-01-25T13:54:46;10.80;99.90
11744;DHT22;5929;51.906;7.674;2024-01-25T13:57:13;10.60;99.90
11744;DHT22;5929;51.906;7.674;2024-01-25T13:59:40;10.50;99.90
11744;DHT22;5929;51.906;7.674;2024-01-25T14:02:07;10.20;99.90
11744;DHT22;5929;51.906;7.674;2024-01-25T14:04:34;10.00;99.90
11744;DHT22;5929;51.906;7.674;2024-01-25T14:07:01;9.90;99.90
11744;DHT22;5929;51.906;7.674;2024-01-25T14:09:29;9.80;99.90
11744;DHT22;5929;51.906;7.674;2024-01-25T14:11:56;9.50;99.90
11744;DHT22;5929;51.906;7.674;2024-01-25T14:14:23;9.40;99.90
11744;DHT22;5929;51.906;7.674;2024-01-25T14:16:50;9.30;99.90
11744;DHT22;5929;51.906;7.674;2024-01-25T14:19:17;9.30;99.90
11744;DHT22;5929;51.906;7.674;2024-01-25T14:21:46;9.20;99.90
11744;DHT22;5929;51.906;7.674;2024-01-25T14:24:13;9.20;99.90
11744;DHT22;5929;51.906;7.674;2024-01-25T14:26:41;9.20;99.90
11744;DHT22;5929;51.906;7.674;2024-01-25T14:29:08;9.10;99.90
11744;DHT22;5929;51.906;7.674;2024-01-25T14:31:35;9.10;99.90
11744;DHT22;5929;51.906;7.674;2024-01-25T14:34:02;9.00;99.90
11744;DHT22;5929;51.906;7.674;2024-01-25T14:36:31;8.90;99.90
11744;DHT22;5929;51.906;7.674;2024-01-25T14:38:58;8.90;99.90
11744;DHT22;5929;51.906;7.674;2024-01-25T14:41:25;8.90;99.90
11744;DHT22;5929;51.906;7.674;2024-01-25T14:43:53;8.90;99.90
11744;DHT22;5929;51.906;7.674;2024-01-25T14:46:20;8.90;99.90
11744;DHT22;5929;51.906;7.674;2024-01-25T14:48:47;8.90;99.90
11744;DHT22;5929;51.906;7.674;2024-01-25T14:51:13;8.90;99.90
11744;DHT22;5929;51.906;7.674;2024-01-25T14:53:40;8.90;99.90
11744;DHT22;5929;51.906;7.674;2024-01-25T14:56:08;8.90;99.90
11744;DHT22;5929;51.906;7.674;2024-01-25T14:58:35;8.90;99.90
11744;DHT22;5929;51.906;7.674;2024-01-25T15:01:03;8.80;99.90
11744;DHT22;5929;51.906;7.674;2024-01-25T15:03:31;8.70;99.90
11744;DHT22;5929;51.906;7.674;2024-01-25T15:05:57;8.70;99.90
11744;DHT22;5929;51.906;7.674;2024-01-25T15:08:25;8.60;99.90
11744;DHT22;5929;51.906;7.674;2024-01-25T15:10:54;8.60;99.90
11744;DHT22;5929;51.906;7.674;2024-01-25T15:13:21;8.60;99.90
11744;DHT22;5929;51.906;7.674;2024-01-25T15:15:48;8.60;99.90
11744;DHT22;5929;51.906;7.674;2024-01-25T15:18:16;8.50;99.90
11744;DHT22;5929;51.906;7.674;2024-01-25T15:20:43;8.40;99.90
11744;DHT22;5929;51.906;7.674;2024-01-25T15:23:10;8.40;99.90
11744;DHT22;5929;51.906;7.674;2024-01-25T15:25:39;8.30;99.90
11744;DHT22;5929;51.906;7.674;2024-01-25T15:28:06;8.20;99.90
11744;DHT22;5929;51.906;7.674;2024-01-25T15:30:33;8.10;99.90
11744;DHT22;5929;51.906;7.674;2024-01-25T15:32:59;8.00;99.90
11744;DHT22;5929;51.906;7.674;2024-01-25T15:35:29;8.00;99.90
11744;DHT22;5929;51.906;7.674;2024-01-25T15:37:55;7.90;99.90
11744;DHT22;5929;51.906;7.674;2024-01-25T15:40:25;7.80;99.90
11744;DHT22;5929;51.906;7.674;2024-01-25T15:42:51;7.80;99.90
11744;DHT22;5929;51.906;7.674;2024-01-25T15:45:20;7.70;99.90
11744;DHT22;5929;51.906;7.674;2024-01-25T15:47:47;7.60;99.90
11744;DHT22;5929;51.906;7.674;2024-01-25T15:50:14;7.50;99.90
11744;DHT22;5929;51.906;7.674;2024-01-25T15:52:45;7.50;99.90
11744;DHT22;5929;51.906;7.674;2024-01-25T15:55:12;7.40;99.90
11744;DHT22;5929;51.906;7.674;2024-01-25T15:57:39;7.40;99.90
11744;DHT22;5929;51.906;7.674;2024-01-25T16:00:07;7.30;99.90